Terminal Aerodrome Forecast
Issued by NWS

Home | Current Version | Previous Version | Text Only | Print | Product List | Glossary On
Versions: 1 2 3 4 5 6 7 8 9 10 11 12 13
000
FTUS42 KGSP 281729
TAFAND
TAF
KAND 281729Z 2818/2918 VRB05KT P6SM SKC
     FM282200 22004KT P6SM SKC
     FM290000 15003KT P6SM SKC
     FM291600 20007KT P6SM SCT160=

USA.gov is the U.S. government's official web portal to all federal, state and local government web resources and services.